sensor_id;sensor_type;location;lat;lon;timestamp;temperature;humidity
16040;DHT22;8124;48.634;8.120;2022-07-12T00:03:50;21.40;99.90
16040;DHT22;8124;48.634;8.120;2022-07-12T00:08:54;21.40;99.90
16040;DHT22;8124;48.634;8.120;2022-07-12T00:13:57;21.30;99.90
16040;DHT22;8124;48.634;8.120;2022-07-12T00:19:00;20.90;99.90
16040;DHT22;8124;48.634;8.120;2022-07-12T00:24:05;20.60;99.90
16040;DHT22;8124;48.634;8.120;2022-07-12T00:29:08;20.70;99.90
16040;DHT22;8124;48.634;8.120;2022-07-12T00:34:11;20.80;99.90
16040;DHT22;8124;48.634;8.120;2022-07-12T00:39:15;20.90;99.90
16040;DHT22;8124;48.634;8.120;2022-07-12T00:44:18;20.80;99.90
16040;DHT22;8124;48.634;8.120;2022-07-12T00:49:22;20.60;99.90
16040;DHT22;8124;48.634;8.120;2022-07-12T00:54:27;20.10;99.90
16040;DHT22;8124;48.634;8.120;2022-07-12T00:59:30;20.00;99.90
16040;DHT22;8124;48.634;8.120;2022-07-12T01:04:34;19.20;99.90
16040;DHT22;8124;48.634;8.120;2022-07-12T01:09:44;19.40;99.90
16040;DHT22;8124;48.634;8.120;2022-07-12T01:14:50;19.70;99.90
16040;DHT22;8124;48.634;8.120;2022-07-12T01:19:54;19.90;99.90
16040;DHT22;8124;48.634;8.120;2022-07-12T01:25:00;19.70;99.90
16040;DHT22;8124;48.634;8.120;2022-07-12T01:30:04;19.60;99.90
16040;DHT22;8124;48.634;8.120;2022-07-12T01:35:08;19.50;99.90
16040;DHT22;8124;48.634;8.120;2022-07-12T01:40:14;19.40;99.90
16040;DHT22;8124;48.634;8.120;2022-07-12T01:45:17;18.90;99.90
16040;DHT22;8124;48.634;8.120;2022-07-12T01:50:20;19.20;99.90
16040;DHT22;8124;48.634;8.120;2022-07-12T01:55:25;19.50;99.90
16040;DHT22;8124;48.634;8.120;2022-07-12T02:00:28;19.30;99.90
16040;DHT22;8124;48.634;8.120;2022-07-12T02:05:32;19.20;99.90
16040;DHT22;8124;48.634;8.120;2022-07-12T02:10:36;19.40;99.90
16040;DHT22;8124;48.634;8.120;2022-07-12T02:15:39;19.20;99.90
16040;DHT22;8124;48.634;8.120;2022-07-12T02:20:42;19.40;99.90
16040;DHT22;8124;48.634;8.120;2022-07-12T02:25:46;19.30;99.90
16040;DHT22;8124;48.634;8.120;2022-07-12T02:30:49;19.30;99.90
16040;DHT22;8124;48.634;8.120;2022-07-12T02:35:52;19.10;99.90
16040;DHT22;8124;48.634;8.120;2022-07-12T02:40:57;19.10;99.90
16040;DHT22;8124;48.634;8.120;2022-07-12T02:46:04;19.10;99.90
16040;DHT22;8124;48.634;8.120;2022-07-12T02:51:13;19.00;99.90
16040;DHT22;8124;48.634;8.120;2022-07-12T02:56:17;19.00;99.90
16040;DHT22;8124;48.634;8.120;2022-07-12T03:01:20;18.90;99.90
16040;DHT22;8124;48.634;8.120;2022-07-12T03:06:23;18.60;99.90
16040;DHT22;8124;48.634;8.120;2022-07-12T03:11:27;18.30;99.90
16040;DHT22;8124;48.634;8.120;2022-07-12T03:16:30;18.20;99.90
16040;DHT22;8124;48.634;8.120;2022-07-12T03:21:37;18.40;99.90
16040;DHT22;8124;48.634;8.120;2022-07-12T03:26:42;18.40;99.90
16040;DHT22;8124;48.634;8.120;2022-07-12T03:31:45;18.20;99.90
16040;DHT22;8124;48.634;8.120;2022-07-12T03:36:47;18.40;99.90
16040;DHT22;8124;48.634;8.120;2022-07-12T03:41:52;18.40;99.90
16040;DHT22;8124;48.634;8.120;2022-07-12T03:46:55;18.30;99.90
16040;DHT22;8124;48.634;8.120;2022-07-12T03:51:58;18.30;99.90
16040;DHT22;8124;48.634;8.120;2022-07-12T03:57:02;18.40;99.90
16040;DHT22;8124;48.634;8.120;2022-07-12T04:02:18;18.40;99.90
16040;DHT22;8124;48.634;8.120;2022-07-12T04:07:21;18.40;99.90
16040;DHT22;8124;48.634;8.120;2022-07-12T04:12:25;18.30;99.90
16040;DHT22;8124;48.634;8.120;2022-07-12T04:17:28;18.40;99.90
16040;DHT22;8124;48.634;8.120;2022-07-12T04:22:31;18.10;99.90
16040;DHT22;8124;48.634;8.120;2022-07-12T04:27:36;18.20;99.90
16040;DHT22;8124;48.634;8.120;2022-07-12T04:32:39;18.10;99.90
16040;DHT22;8124;48.634;8.120;2022-07-12T04:37:42;17.90;99.90
16040;DHT22;8124;48.634;8.120;2022-07-12T04:42:46;17.90;99.90
16040;DHT22;8124;48.634;8.120;2022-07-12T04:47:49;17.90;99.90
16040;DHT22;8124;48.634;8.120;2022-07-12T04:52:52;18.00;99.90
16040;DHT22;8124;48.634;8.120;2022-07-12T04:57:57;18.10;99.90
16040;DHT22;8124;48.634;8.120;2022-07-12T05:03:00;17.70;99.90
16040;DHT22;8124;48.634;8.120;2022-07-12T05:08:03;18.10;99.90
16040;DHT22;8124;48.634;8.120;2022-07-12T05:13:08;18.30;99.90
16040;DHT22;8124;48.634;8.120;2022-07-12T05:18:11;18.30;99.90
16040;DHT22;8124;48.634;8.120;2022-07-12T05:23:14;18.50;99.90
16040;DHT22;8124;48.634;8.120;2022-07-12T05:28:19;18.90;99.90
16040;DHT22;8124;48.634;8.120;2022-07-12T05:33:23;19.20;99.90
16040;DHT22;8124;48.634;8.120;2022-07-12T05:38:26;19.20;99.90
16040;DHT22;8124;48.634;8.120;2022-07-12T05:43:30;19.50;99.90
16040;DHT22;8124;48.634;8.120;2022-07-12T05:48:33;19.60;99.90
16040;DHT22;8124;48.634;8.120;2022-07-12T05:53:36;19.80;99.90
16040;DHT22;8124;48.634;8.120;2022-07-12T05:58:40;20.10;99.90
16040;DHT22;8124;48.634;8.120;2022-07-12T06:03:43;20.40;99.90
16040;DHT22;8124;48.634;8.120;2022-07-12T06:08:46;20.60;99.90
16040;DHT22;8124;48.634;8.120;2022-07-12T06:13:51;20.90;99.90
16040;DHT22;8124;48.634;8.120;2022-07-12T06:18:54;21.10;99.90
16040;DHT22;8124;48.634;8.120;2022-07-12T06:23:57;21.20;99.90
16040;DHT22;8124;48.634;8.120;2022-07-12T06:29:01;21.50;99.90
16040;DHT22;8124;48.634;8.120;2022-07-12T06:34:04;21.60;99.90
16040;DHT22;8124;48.634;8.120;2022-07-12T06:39:07;21.50;99.90
16040;DHT22;8124;48.634;8.120;2022-07-12T06:44:11;21.60;99.90
16040;DHT22;8124;48.634;8.120;2022-07-12T06:49:14;21.40;99.90
16040;DHT22;8124;48.634;8.120;2022-07-12T06:54:17;21.50;99.90
16040;DHT22;8124;48.634;8.120;2022-07-12T06:59:21;21.70;99.90
16040;DHT22;8124;48.634;8.120;2022-07-12T07:04:24;21.70;99.90
16040;DHT22;8124;48.634;8.120;2022-07-12T07:09:27;21.60;99.90
16040;DHT22;8124;48.634;8.120;2022-07-12T07:14:32;21.90;99.90
16040;DHT22;8124;48.634;8.120;2022-07-12T07:19:36;22.00;99.90
16040;DHT22;8124;48.634;8.120;2022-07-12T07:24:39;22.20;99.90
16040;DHT22;8124;48.634;8.120;2022-07-12T07:29:44;22.40;99.90
16040;DHT22;8124;48.634;8.120;2022-07-12T07:35:05;22.50;99.90
16040;DHT22;8124;48.634;8.120;2022-07-12T07:40:09;22.70;99.90
16040;DHT22;8124;48.634;8.120;2022-07-12T07:45:13;22.80;99.90
16040;DHT22;8124;48.634;8.120;2022-07-12T07:50:19;22.90;99.90
16040;DHT22;8124;48.634;8.120;2022-07-12T07:55:22;23.10;99.90
16040;DHT22;8124;48.634;8.120;2022-07-12T08:00:27;23.40;99.90
16040;DHT22;8124;48.634;8.120;2022-07-12T08:05:30;23.80;99.90
16040;DHT22;8124;48.634;8.120;2022-07-12T08:10:33;23.80;99.90
16040;DHT22;8124;48.634;8.120;2022-07-12T08:15:37;24.10;99.90
16040;DHT22;8124;48.634;8.120;2022-07-12T08:20:40;24.00;99.90
16040;DHT22;8124;48.634;8.120;2022-07-12T08:25:48;24.20;99.90
16040;DHT22;8124;48.634;8.120;2022-07-12T08:30:52;24.10;99.90
16040;DHT22;8124;48.634;8.120;2022-07-12T08:35:55;24.50;99.90
16040;DHT22;8124;48.634;8.120;2022-07-12T08:40:58;24.90;99.90
16040;DHT22;8124;48.634;8.120;2022-07-12T08:46:07;25.00;99.90
16040;DHT22;8124;48.634;8.120;2022-07-12T08:51:11;24.90;99.90
16040;DHT22;8124;48.634;8.120;2022-07-12T08:56:29;24.90;99.90
16040;DHT22;8124;48.634;8.120;2022-07-12T09:01:42;24.50;99.90
16040;DHT22;8124;48.634;8.120;2022-07-12T09:06:46;24.50;99.90
16040;DHT22;8124;48.634;8.120;2022-07-12T09:11:51;24.70;99.90
16040;DHT22;8124;48.634;8.120;2022-07-12T09:17:03;24.80;99.90
16040;DHT22;8124;48.634;8.120;2022-07-12T09:22:14;24.70;99.90
16040;DHT22;8124;48.634;8.120;2022-07-12T09:27:24;24.80;99.90
16040;DHT22;8124;48.634;8.120;2022-07-12T09:32:29;25.10;99.90
16040;DHT22;8124;48.634;8.120;2022-07-12T09:37:49;24.90;99.90
16040;DHT22;8124;48.634;8.120;2022-07-12T09:42:52;24.90;99.90
16040;DHT22;8124;48.634;8.120;2022-07-12T09:47:58;25.00;99.90
16040;DHT22;8124;48.634;8.120;2022-07-12T09:53:03;24.90;99.90
16040;DHT22;8124;48.634;8.120;2022-07-12T09:58:07;25.10;99.90
16040;DHT22;8124;48.634;8.120;2022-07-12T10:03:12;25.10;99.90
16040;DHT22;8124;48.634;8.120;2022-07-12T10:08:16;25.40;99.90
16040;DHT22;8124;48.634;8.120;2022-07-12T10:13:20;25.60;99.90
16040;DHT22;8124;48.634;8.120;2022-07-12T10:18:25;25.50;99.90
16040;DHT22;8124;48.634;8.120;2022-07-12T10:23:32;25.50;99.90
16040;DHT22;8124;48.634;8.120;2022-07-12T10:28:55;25.60;99.90
16040;DHT22;8124;48.634;8.120;2022-07-12T10:34:13;25.70;99.90
16040;DHT22;8124;48.634;8.120;2022-07-12T10:39:18;25.70;99.90
16040;DHT22;8124;48.634;8.120;2022-07-12T10:44:33;25.90;99.90
16040;DHT22;8124;48.634;8.120;2022-07-12T10:49:45;26.00;99.90
16040;DHT22;8124;48.634;8.120;2022-07-12T10:55:16;26.10;99.90
16040;DHT22;8124;48.634;8.120;2022-07-12T11:00:19;25.90;99.90
16040;DHT22;8124;48.634;8.120;2022-07-12T11:05:26;25.90;99.90
16040;DHT22;8124;48.634;8.120;2022-07-12T11:10:29;25.90;99.90
16040;DHT22;8124;48.634;8.120;2022-07-12T11:15:32;26.10;99.80
16040;DHT22;8124;48.634;8.120;2022-07-12T11:20:37;26.20;99.50
16040;DHT22;8124;48.634;8.120;2022-07-12T11:25:40;26.20;98.90
16040;DHT22;8124;48.634;8.120;2022-07-12T11:30:48;26.60;99.00
16040;DHT22;8124;48.634;8.120;2022-07-12T11:35:54;26.30;98.10
16040;DHT22;8124;48.634;8.120;2022-07-12T11:40:59;26.30;97.40
16040;DHT22;8124;48.634;8.120;2022-07-12T11:46:03;26.30;96.80
16040;DHT22;8124;48.634;8.120;2022-07-12T11:51:10;26.40;96.40
16040;DHT22;8124;48.634;8.120;2022-07-12T11:56:13;26.30;95.90
16040;DHT22;8124;48.634;8.120;2022-07-12T12:01:16;26.70;95.90
16040;DHT22;8124;48.634;8.120;2022-07-12T12:06:20;26.50;95.10
16040;DHT22;8124;48.634;8.120;2022-07-12T12:11:27;27.00;95.30
16040;DHT22;8124;48.634;8.120;2022-07-12T12:16:33;27.10;95.00
16040;DHT22;8124;48.634;8.120;2022-07-12T12:21:38;27.20;94.70
16040;DHT22;8124;48.634;8.120;2022-07-12T12:26:41;27.20;94.10
16040;DHT22;8124;48.634;8.120;2022-07-12T12:31:56;27.20;93.60
16040;DHT22;8124;48.634;8.120;2022-07-12T12:37:05;27.20;93.10
16040;DHT22;8124;48.634;8.120;2022-07-12T12:42:11;27.10;92.50
16040;DHT22;8124;48.634;8.120;2022-07-12T12:47:14;27.30;92.30
16040;DHT22;8124;48.634;8.120;2022-07-12T12:52:47;27.20;91.80
16040;DHT22;8124;48.634;8.120;2022-07-12T12:57:51;27.50;91.60
16040;DHT22;8124;48.634;8.120;2022-07-12T13:02:54;27.40;91.20
16040;DHT22;8124;48.634;8.120;2022-07-12T13:08:03;27.50;90.90
16040;DHT22;8124;48.634;8.120;2022-07-12T13:13:08;27.60;90.50
16040;DHT22;8124;48.634;8.120;2022-07-12T13:18:17;27.50;90.00
16040;DHT22;8124;48.634;8.120;2022-07-12T13:23:23;27.60;89.60
16040;DHT22;8124;48.634;8.120;2022-07-12T13:28:27;27.80;90.00
16040;DHT22;8124;48.634;8.120;2022-07-12T13:33:30;27.60;88.00
16040;DHT22;8124;48.634;8.120;2022-07-12T13:38:35;27.60;87.00
16040;DHT22;8124;48.634;8.120;2022-07-12T13:43:40;27.70;86.40
16040;DHT22;8124;48.634;8.120;2022-07-12T13:48:43;27.80;86.40
16040;DHT22;8124;48.634;8.120;2022-07-12T13:53:51;28.10;86.50
16040;DHT22;8124;48.634;8.120;2022-07-12T13:58:54;28.00;85.40
16040;DHT22;8124;48.634;8.120;2022-07-12T14:03:57;28.10;84.80
16040;DHT22;8124;48.634;8.120;2022-07-12T14:09:02;28.00;84.00
16040;DHT22;8124;48.634;8.120;2022-07-12T14:14:27;28.00;83.40
16040;DHT22;8124;48.634;8.120;2022-07-12T14:19:48;28.20;83.00
16040;DHT22;8124;48.634;8.120;2022-07-12T14:24:53;28.30;82.60
16040;DHT22;8124;48.634;8.120;2022-07-12T14:30:04;28.20;81.80
16040;DHT22;8124;48.634;8.120;2022-07-12T14:35:09;28.20;81.10
16040;DHT22;8124;48.634;8.120;2022-07-12T14:40:14;28.40;80.90
16040;DHT22;8124;48.634;8.120;2022-07-12T14:45:20;28.30;80.80
16040;DHT22;8124;48.634;8.120;2022-07-12T14:50:23;28.40;79.70
16040;DHT22;8124;48.634;8.120;2022-07-12T14:55:30;28.40;79.10
16040;DHT22;8124;48.634;8.120;2022-07-12T15:00:34;28.60;78.90
16040;DHT22;8124;48.634;8.120;2022-07-12T15:05:37;28.60;78.40
16040;DHT22;8124;48.634;8.120;2022-07-12T15:10:43;28.60;77.80
16040;DHT22;8124;48.634;8.120;2022-07-12T15:15:46;28.70;77.40
16040;DHT22;8124;48.634;8.120;2022-07-12T15:20:49;28.70;77.00
16040;DHT22;8124;48.634;8.120;2022-07-12T15:25:53;28.70;76.40
16040;DHT22;8124;48.634;8.120;2022-07-12T15:30:56;28.60;75.80
16040;DHT22;8124;48.634;8.120;2022-07-12T15:36:00;28.60;75.30
16040;DHT22;8124;48.634;8.120;2022-07-12T15:41:04;28.80;75.20
16040;DHT22;8124;48.634;8.120;2022-07-12T15:46:08;28.90;75.00
16040;DHT22;8124;48.634;8.120;2022-07-12T15:51:12;28.90;74.50
16040;DHT22;8124;48.634;8.120;2022-07-12T15:56:16;28.70;73.70
16040;DHT22;8124;48.634;8.120;2022-07-12T16:01:19;28.90;73.70
16040;DHT22;8124;48.634;8.120;2022-07-12T16:06:22;29.10;73.60
16040;DHT22;8124;48.634;8.120;2022-07-12T16:11:26;29.10;73.30
16040;DHT22;8124;48.634;8.120;2022-07-12T16:16:29;29.20;73.10
16040;DHT22;8124;48.634;8.120;2022-07-12T16:21:33;29.00;72.40
16040;DHT22;8124;48.634;8.120;2022-07-12T16:26:37;29.10;72.10
16040;DHT22;8124;48.634;8.120;2022-07-12T16:31:40;29.20;72.00
16040;DHT22;8124;48.634;8.120;2022-07-12T16:37:03;29.10;71.60
16040;DHT22;8124;48.634;8.120;2022-07-12T16:42:07;29.00;71.20
16040;DHT22;8124;48.634;8.120;2022-07-12T16:47:10;28.90;70.80
16040;DHT22;8124;48.634;8.120;2022-07-12T16:52:14;28.80;70.40
16040;DHT22;8124;48.634;8.120;2022-07-12T16:57:18;28.90;70.50
16040;DHT22;8124;48.634;8.120;2022-07-12T17:02:21;28.80;70.20
16040;DHT22;8124;48.634;8.120;2022-07-12T17:07:24;28.90;70.20
16040;DHT22;8124;48.634;8.120;2022-07-12T17:12:28;29.20;70.50
16040;DHT22;8124;48.634;8.120;2022-07-12T17:17:38;29.40;70.50
16040;DHT22;8124;48.634;8.120;2022-07-12T17:22:41;29.50;70.40
16040;DHT22;8124;48.634;8.120;2022-07-12T17:27:45;29.50;70.10
16040;DHT22;8124;48.634;8.120;2022-07-12T17:32:48;29.40;69.70
16040;DHT22;8124;48.634;8.120;2022-07-12T17:37:52;29.40;69.40
16040;DHT22;8124;48.634;8.120;2022-07-12T17:42:56;29.40;69.10
16040;DHT22;8124;48.634;8.120;2022-07-12T17:48:02;29.50;68.90
16040;DHT22;8124;48.634;8.120;2022-07-12T17:53:05;29.60;68.90
16040;DHT22;8124;48.634;8.120;2022-07-12T17:58:09;29.80;68.80
16040;DHT22;8124;48.634;8.120;2022-07-12T18:03:30;29.60;68.20
16040;DHT22;8124;48.634;8.120;2022-07-12T18:08:33;29.80;68.20
16040;DHT22;8124;48.634;8.120;2022-07-12T18:13:38;29.80;67.80
16040;DHT22;8124;48.634;8.120;2022-07-12T18:18:58;29.60;67.10
16040;DHT22;8124;48.634;8.120;2022-07-12T18:24:01;29.80;67.00
16040;DHT22;8124;48.634;8.120;2022-07-12T18:29:06;30.00;67.00
16040;DHT22;8124;48.634;8.120;2022-07-12T18:34:10;30.00;66.70
16040;DHT22;8124;48.634;8.120;2022-07-12T18:39:13;29.90;66.30
16040;DHT22;8124;48.634;8.120;2022-07-12T18:44:18;30.00;66.30
16040;DHT22;8124;48.634;8.120;2022-07-12T18:49:29;29.70;65.80
16040;DHT22;8124;48.634;8.120;2022-07-12T18:54:33;29.40;65.30
16040;DHT22;8124;48.634;8.120;2022-07-12T18:59:37;29.10;65.00
16040;DHT22;8124;48.634;8.120;2022-07-12T19:04:40;28.80;64.70
16040;DHT22;8124;48.634;8.120;2022-07-12T19:09:43;28.70;64.80
16040;DHT22;8124;48.634;8.120;2022-07-12T19:14:47;28.50;64.80
16040;DHT22;8124;48.634;8.120;2022-07-12T19:19:51;28.30;64.80
16040;DHT22;8124;48.634;8.120;2022-07-12T19:24:53;28.10;64.80
16040;DHT22;8124;48.634;8.120;2022-07-12T19:29:59;27.60;64.60
16040;DHT22;8124;48.634;8.120;2022-07-12T19:35:03;27.20;64.60
16040;DHT22;8124;48.634;8.120;2022-07-12T19:40:07;26.80;64.70
16040;DHT22;8124;48.634;8.120;2022-07-12T19:45:11;26.90;65.40
16040;DHT22;8124;48.634;8.120;2022-07-12T19:50:14;27.20;66.40
16040;DHT22;8124;48.634;8.120;2022-07-12T19:55:17;27.50;67.20
16040;DHT22;8124;48.634;8.120;2022-07-12T20:00:22;27.50;68.10
16040;DHT22;8124;48.634;8.120;2022-07-12T20:05:26;27.10;68.30
16040;DHT22;8124;48.634;8.120;2022-07-12T20:10:29;27.30;69.30
16040;DHT22;8124;48.634;8.120;2022-07-12T20:15:33;27.20;69.60
16040;DHT22;8124;48.634;8.120;2022-07-12T20:20:37;27.00;69.80
16040;DHT22;8124;48.634;8.120;2022-07-12T20:25:41;27.00;70.50
16040;DHT22;8124;48.634;8.120;2022-07-12T20:30:45;27.00;71.20
16040;DHT22;8124;48.634;8.120;2022-07-12T20:35:50;26.90;71.10
16040;DHT22;8124;48.634;8.120;2022-07-12T20:40:53;26.10;70.20
16040;DHT22;8124;48.634;8.120;2022-07-12T20:46:14;26.10;71.00
16040;DHT22;8124;48.634;8.120;2022-07-12T20:51:17;26.30;71.70
16040;DHT22;8124;48.634;8.120;2022-07-12T20:56:20;26.30;72.30
16040;DHT22;8124;48.634;8.120;2022-07-12T21:01:25;26.40;72.80
16040;DHT22;8124;48.634;8.120;2022-07-12T21:06:28;26.40;73.00
16040;DHT22;8124;48.634;8.120;2022-07-12T21:11:31;26.30;73.20
16040;DHT22;8124;48.634;8.120;2022-07-12T21:16:37;26.30;73.30
16040;DHT22;8124;48.634;8.120;2022-07-12T21:21:40;26.00;73.20
16040;DHT22;8124;48.634;8.120;2022-07-12T21:26:43;25.60;73.00
16040;DHT22;8124;48.634;8.120;2022-07-12T21:31:48;25.50;73.30
16040;DHT22;8124;48.634;8.120;2022-07-12T21:36:51;25.60;73.80
16040;DHT22;8124;48.634;8.120;2022-07-12T21:41:54;25.50;74.00
16040;DHT22;8124;48.634;8.120;2022-07-12T21:46:59;25.40;74.20
16040;DHT22;8124;48.634;8.120;2022-07-12T21:52:02;25.30;74.50
16040;DHT22;8124;48.634;8.120;2022-07-12T21:57:05;25.20;74.90
16040;DHT22;8124;48.634;8.120;2022-07-12T22:02:10;25.10;75.10
16040;DHT22;8124;48.634;8.120;2022-07-12T22:07:13;24.50;74.60
16040;DHT22;8124;48.634;8.120;2022-07-12T22:12:16;24.60;75.30
16040;DHT22;8124;48.634;8.120;2022-07-12T22:17:20;24.50;75.70
16040;DHT22;8124;48.634;8.120;2022-07-12T22:22:23;24.60;76.60
16040;DHT22;8124;48.634;8.120;2022-07-12T22:27:26;24.30;76.90
16040;DHT22;8124;48.634;8.120;2022-07-12T22:32:30;24.60;77.60
16040;DHT22;8124;48.634;8.120;2022-07-12T22:37:34;24.70;78.00
16040;DHT22;8124;48.634;8.120;2022-07-12T22:42:38;24.70;79.00
16040;DHT22;8124;48.634;8.120;2022-07-12T22:47:42;24.70;78.40
16040;DHT22;8124;48.634;8.120;2022-07-12T22:52:45;24.50;78.60
16040;DHT22;8124;48.634;8.120;2022-07-12T22:57:48;24.20;78.40
16040;DHT22;8124;48.634;8.120;2022-07-12T23:02:52;24.10;79.30
16040;DHT22;8124;48.634;8.120;2022-07-12T23:07:56;24.30;79.90
16040;DHT22;8124;48.634;8.120;2022-07-12T23:12:59;24.10;80.20
16040;DHT22;8124;48.634;8.120;2022-07-12T23:18:05;24.10;80.90
16040;DHT22;8124;48.634;8.120;2022-07-12T23:23:08;23.90;81.30
16040;DHT22;8124;48.634;8.120;2022-07-12T23:28:11;23.80;81.90
16040;DHT22;8124;48.634;8.120;2022-07-12T23:33:15;23.80;82.50
16040;DHT22;8124;48.634;8.120;2022-07-12T23:38:18;23.60;83.00
16040;DHT22;8124;48.634;8.120;2022-07-12T23:43:21;23.30;83.20
16040;DHT22;8124;48.634;8.120;2022-07-12T23:48:26;23.50;84.00
16040;DHT22;8124;48.634;8.120;2022-07-12T23:53:29;23.00;83.90
16040;DHT22;8124;48.634;8.120;2022-07-12T23:58:32;23.10;84.80
